Time;durP1;ratioP1;P1;durP2;ratioP2;P2;SDS_P1;SDS_P2;PMS_P1;PMS_P2;Temp;Humidity;BMP_temperature;BMP_pressure;BME280_temperature;BME280_humidity;BME280_pressure;Samples;Min_cycle;Max_cycle;Signal;HPM_P1;HPM_P2
2022/07/27 00:02:18;;;;;;;;;;;;;;;14.68;67.14;100564.22;5055529;28;19974;-82
2022/07/27 00:04:43;;;;;;;;;;;;;;;14.57;67.10;100559.59;5056340;28;20375;-83
2022/07/27 00:07:09;;;;;;;;;;;;;;;14.57;67.30;100551.38;5056259;28;19928;-81
2022/07/27 00:09:34;;;;;;;;;;;;;;;14.52;67.62;100548.91;5056736;28;19919;-81
2022/07/27 00:11:59;;;;;;;;;;;;;;;14.46;68.16;100551.09;5056391;28;19964;-83
2022/07/27 00:14:24;;;;;;;;;;;;;;;14.46;68.07;100551.09;5056091;28;19912;-83
2022/07/27 00:16:50;;;;;;;;;;;;;;;14.70;67.64;100553.69;5056449;28;19916;-83
2022/07/27 00:19:15;;;;;;;;;;;;;;;14.50;68.10;100553.94;5056398;28;19920;-84
2022/07/27 00:21:40;;;;;;;;;;;;;;;14.82;66.96;100560.25;5056228;28;19912;-83
2022/07/27 00:24:05;;;;;;;;;;;;;;;14.81;67.09;100555.94;5055947;28;19944;-82
2022/07/27 00:26:30;;;;;;;;;;;;;;;14.51;68.33;100555.53;5056076;28;19919;-83
2022/07/27 00:28:56;;;;;;;;;;;;;;;14.40;68.65;100555.19;5056011;28;19931;-82
2022/07/27 00:31:21;;;;;;;;;;;;;;;14.83;67.52;100564.59;5056069;28;19916;-82
2022/07/27 00:33:46;;;;;;;;;;;;;;;14.63;68.01;100556.25;5056036;28;19935;-82
2022/07/27 00:36:12;;;;;;;;;;;;;;;14.44;68.84;100556.09;5056003;28;19959;-82
2022/07/27 00:38:37;;;;;;;;;;;;;;;14.73;67.86;100555.72;5055624;28;19963;-83
2022/07/27 00:41:02;;;;;;;;;;;;;;;14.66;68.22;100558.28;5055588;28;19917;-82
2022/07/27 00:43:27;;;;;;;;;;;;;;;14.53;69.03;100561.44;5055856;28;19916;-82
2022/07/27 00:45:53;;;;;;;;;;;;;;;14.59;68.59;100560.84;5055879;28;19939;-82
2022/07/27 00:48:18;;;;;;;;;;;;;;;14.41;69.42;100560.31;5055282;28;20007;-82
2022/07/27 00:50:44;;;;;;;;;;;;;;;14.48;69.61;100565.25;5055551;28;20229;-82
2022/07/27 00:53:10;;;;;;;;;;;;;;;14.49;69.53;100561.34;5055411;28;20321;-82
2022/07/27 00:55:38;;;;;;;;;;;;;;;14.52;69.26;100560.66;5055744;28;19913;-82
2022/07/27 00:58:05;;;;;;;;;;;;;;;14.43;69.79;100557.22;5055288;28;19924;-82
2022/07/27 01:00:30;;;;;;;;;;;;;;;14.35;70.26;100566.41;5055638;28;20421;-83
2022/07/27 01:02:55;;;;;;;;;;;;;;;14.27;70.91;100564.59;5055299;28;19948;-83
2022/07/27 01:05:21;;;;;;;;;;;;;;;14.23;70.75;100564.50;5055151;28;20352;-83
2022/07/27 01:07:47;;;;;;;;;;;;;;;14.26;70.76;100557.53;5054864;28;19913;-83
2022/07/27 01:10:13;;;;;;;;;;;;;;;14.46;70.33;100559.31;5055462;28;19962;-84
2022/07/27 01:12:38;;;;;;;;;;;;;;;14.36;70.79;100557.03;5053946;28;19917;-83
2022/07/27 01:15:03;;;;;;;;;;;;;;;14.32;71.09;100558.91;5055380;28;19913;-82
2022/07/27 01:17:29;;;;;;;;;;;;;;;14.33;70.88;100552.28;5055218;28;19944;-83
2022/07/27 01:19:55;;;;;;;;;;;;;;;14.18;71.85;100555.75;5055356;28;19912;-83
2022/07/27 01:22:20;;;;;;;;;;;;;;;14.31;70.93;100552.63;5054893;28;20345;-82
2022/07/27 01:24:46;;;;;;;;;;;;;;;14.45;71.21;100544.03;5054764;28;19913;-82
2022/07/27 01:27:11;;;;;;;;;;;;;;;14.24;71.90;100551.59;5055167;28;19963;-83
2022/07/27 01:29:40;;;;;;;;;;;;;;;14.32;71.31;100550.69;5054807;28;19960;-82
2022/07/27 01:32:06;;;;;;;;;;;;;;;14.19;72.01;100554.59;5054652;28;19924;-83
2022/07/27 01:34:34;;;;;;;;;;;;;;;14.06;72.73;100548.38;5054810;28;20317;-82
2022/07/27 01:37:00;;;;;;;;;;;;;;;14.06;72.78;100548.38;5054843;28;19975;-83
2022/07/27 01:39:25;;;;;;;;;;;;;;;14.21;72.12;100552.31;5056292;28;19920;-83
2022/07/27 01:41:50;;;;;;;;;;;;;;;13.97;72.85;100547.72;5055184;28;19917;-82
2022/07/27 01:44:15;;;;;;;;;;;;;;;13.88;73.50;100555.25;5054773;28;19913;-83
2022/07/27 01:46:41;;;;;;;;;;;;;;;13.74;73.95;100553.69;5054619;28;19924;-82
2022/07/27 01:49:06;;;;;;;;;;;;;;;13.73;74.00;100551.31;5053229;28;19913;-83
2022/07/27 01:51:31;;;;;;;;;;;;;;;13.55;74.64;100548.03;5054688;28;19913;-82
2022/07/27 01:53:56;;;;;;;;;;;;;;;13.54;74.50;100544.50;5053278;28;20341;-82
2022/07/27 01:56:22;;;;;;;;;;;;;;;13.57;74.75;100547.69;5054563;28;20261;-82
2022/07/27 01:58:47;;;;;;;;;;;;;;;13.63;74.10;100549.06;5054116;28;19916;-82
2022/07/27 02:01:12;;;;;;;;;;;;;;;13.47;74.86;100555.22;5054429;28;19920;-83
2022/07/27 02:03:37;;;;;;;;;;;;;;;13.44;74.85;100555.13;5054484;28;19943;-83
2022/07/27 02:06:05;;;;;;;;;;;;;;;13.37;75.14;100555.69;5054477;28;19943;-84
2022/07/27 02:08:31;;;;;;;;;;;;;;;13.77;73.70;100549.47;5054318;28;19913;-84
2022/07/27 02:13:46;;;;;;;;;;;;;;;13.58;74.31;100544.59;5053999;28;19958;-84
2022/07/27 02:16:11;;;;;;;;;;;;;;;13.52;74.26;100554.97;5053941;28;19917;-83
2022/07/27 02:18:36;;;;;;;;;;;;;;;13.49;74.52;100558.41;5054596;28;19919;-84
2022/07/27 02:21:01;;;;;;;;;;;;;;;13.41;75.47;100548.38;5054797;28;19917;-83
2022/07/27 02:23:27;;;;;;;;;;;;;;;13.63;73.98;100554.53;5054670;28;19928;-84
2022/07/27 02:25:52;;;;;;;;;;;;;;;13.55;74.45;100551.56;5054507;28;20377;-84
2022/07/27 02:28:17;;;;;;;;;;;;;;;13.53;74.37;100551.09;5054574;28;19939;-84
2022/07/27 02:30:43;;;;;;;;;;;;;;;13.45;75.08;100551.25;5054819;28;20379;-84
2022/07/27 02:33:08;;;;;;;;;;;;;;;13.33;75.34;100551.25;5054694;28;20326;-84
2022/07/27 02:35:33;;;;;;;;;;;;;;;13.37;75.27;100544.75;5055026;28;20022;-84
2022/07/27 02:37:58;;;;;;;;;;;;;;;13.31;75.46;100550.78;5054485;28;19912;-84
2022/07/27 02:40:23;;;;;;;;;;;;;;;13.24;75.99;100548.59;5053933;28;19913;-84
2022/07/27 02:42:49;;;;;;;;;;;;;;;13.26;75.83;100549.06;5053953;28;19939;-84
2022/07/27 02:45:14;;;;;;;;;;;;;;;13.23;75.94;100549.75;5053704;28;19924;-84
2022/07/27 02:47:39;;;;;;;;;;;;;;;13.39;75.42;100541.66;5053966;28;19958;-84
2022/07/27 02:50:05;;;;;;;;;;;;;;;13.34;75.84;100539.16;5052930;28;20309;-85
2022/07/27 02:52:32;;;;;;;;;;;;;;;13.35;75.52;100540.75;5054219;28;19913;-84
2022/07/27 02:54:57;;;;;;;;;;;;;;;13.31;75.91;100540.66;5053313;28;19917;-84
2022/07/27 02:57:24;;;;;;;;;;;;;;;13.34;75.83;100539.16;5053590;28;19913;-85
2022/07/27 02:59:52;;;;;;;;;;;;;;;13.34;76.01;100536.44;5053412;28;19917;-84
2022/07/27 03:02:17;;;;;;;;;;;;;;;13.47;75.50;100540.75;5052400;28;19917;-85
2022/07/27 03:04:42;;;;;;;;;;;;;;;13.50;75.18;100540.84;5051957;28;20427;-85
2022/07/27 03:07:08;;;;;;;;;;;;;;;13.40;75.42;100544.03;5053426;28;20371;-84
2022/07/27 03:09:33;;;;;;;;;;;;;;;13.33;75.73;100543.03;5053361;28;19920;-85
2022/07/27 03:11:58;;;;;;;;;;;;;;;13.31;76.20;100551.59;5053022;28;19913;-84
2022/07/27 03:14:24;;;;;;;;;;;;;;;13.23;76.50;100542.34;5053080;28;19912;-84
2022/07/27 03:16:49;;;;;;;;;;;;;;;13.32;76.10;100531.31;5053192;28;19913;-84
2022/07/27 03:19:14;;;;;;;;;;;;;;;13.47;75.73;100541.53;5053172;28;19916;-83
2022/07/27 03:21:40;;;;;;;;;;;;;;;13.33;75.92;100538.38;5053180;28;19916;-84
2022/07/27 03:24:05;;;;;;;;;;;;;;;13.17;76.70;100534.69;5052857;28;19985;-84
2022/07/27 03:26:32;;;;;;;;;;;;;;;13.07;77.06;100538.66;5053082;28;19962;-83
2022/07/27 03:28:57;;;;;;;;;;;;;;;13.32;75.95;100538.72;5054153;28;19912;-84
2022/07/27 03:31:23;;;;;;;;;;;;;;;13.05;77.08;100548.34;5057364;28;19968;-84
2022/07/27 03:33:49;;;;;;;;;;;;;;;12.92;77.96;100551.06;5057256;28;19917;-82
2022/07/27 03:36:14;;;;;;;;;;;;;;;12.86;78.25;100557.91;5056919;28;19912;-83
2022/07/27 03:38:39;;;;;;;;;;;;;;;12.94;78.51;100559.75;5059498;28;19913;-85
2022/07/27 03:41:05;;;;;;;;;;;;;;;12.99;78.91;100561.44;5062461;28;20299;-86
2022/07/27 03:43:31;;;;;;;;;;;;;;;12.95;78.76;100560.53;5059355;28;19927;-84
2022/07/27 03:45:56;;;;;;;;;;;;;;;12.89;78.56;100564.59;5066639;28;19913;-86
2022/07/27 03:48:21;;;;;;;;;;;;;;;13.00;78.28;100563.03;5061937;28;20076;-83
2022/07/27 03:50:46;;;;;;;;;;;;;;;13.19;76.85;100565.25;5056597;28;19944;-83
2022/07/27 03:53:11;;;;;;;;;;;;;;;12.89;78.84;100568.13;5057037;28;19923;-83
2022/07/27 03:55:37;;;;;;;;;;;;;;;12.86;78.92;100574.28;5057016;28;19912;-83
2022/07/27 03:58:02;;;;;;;;;;;;;;;12.84;78.69;100562.91;5056635;28;20003;-83
2022/07/27 04:00:27;;;;;;;;;;;;;;;12.79;78.94;100574.06;5038783;28;19921;-84
2022/07/27 04:02:52;;;;;;;;;;;;;;;12.76;79.18;100574.72;5055409;28;20308;-83
2022/07/27 04:05:19;;;;;;;;;;;;;;;12.90;78.32;100568.94;5056634;28;19927;-81
2022/07/27 04:07:45;;;;;;;;;;;;;;;12.63;79.50;100573.09;5056335;28;19982;-82
2022/07/27 04:10:10;;;;;;;;;;;;;;;12.64;79.46;100570.03;5056363;28;19916;-82
2022/07/27 04:12:36;;;;;;;;;;;;;;;12.68;79.81;100572.09;5056688;28;19916;-83
2022/07/27 04:15:02;;;;;;;;;;;;;;;12.72;79.33;100575.72;5056765;28;19917;-83
2022/07/27 04:17:27;;;;;;;;;;;;;;;12.69;79.63;100574.47;5056338;28;19917;-83
2022/07/27 04:19:52;;;;;;;;;;;;;;;12.71;79.37;100582.34;5056355;28;20360;-83
2022/07/27 04:22:17;;;;;;;;;;;;;;;12.78;79.17;100582.59;5056276;28;19923;-83
2022/07/27 04:24:43;;;;;;;;;;;;;;;12.67;79.33;100581.41;5056404;28;19924;-82
2022/07/27 04:27:08;;;;;;;;;;;;;;;12.58;79.67;100584.22;5054496;28;19959;-82
2022/07/27 04:29:33;;;;;;;;;;;;;;;12.67;79.35;100582.22;5055931;28;19912;-84
2022/07/27 04:31:59;;;;;;;;;;;;;;;13.03;77.87;100580.69;5056081;28;19916;-82
2022/07/27 04:34:24;;;;;;;;;;;;;;;12.91;78.81;100590.47;5055857;28;19974;-82
2022/07/27 04:36:49;;;;;;;;;;;;;;;12.91;78.61;100584.19;5055934;28;20264;-82
2022/07/27 04:39:15;;;;;;;;;;;;;;;12.97;78.33;100584.78;5055067;28;20010;-83
2022/07/27 04:41:40;;;;;;;;;;;;;;;12.95;78.54;100593.34;5055782;28;19912;-83
2022/07/27 04:44:08;;;;;;;;;;;;;;;12.94;78.00;100592.53;5055744;28;19912;-83
2022/07/27 04:46:33;;;;;;;;;;;;;;;13.10;77.43;100600.06;5055598;28;19943;-84
2022/07/27 04:48:59;;;;;;;;;;;;;;;12.96;77.91;100589.47;5055135;28;20304;-83
2022/07/27 04:51:24;;;;;;;;;;;;;;;12.97;78.24;100598.47;5055600;28;19924;-83
2022/07/27 04:53:49;;;;;;;;;;;;;;;12.99;77.72;100593.44;5055805;28;19913;-83
2022/07/27 04:56:14;;;;;;;;;;;;;;;12.89;78.44;100592.75;5055160;28;19920;-83
2022/07/27 04:58:41;;;;;;;;;;;;;;;13.00;78.14;100593.13;5055515;28;19913;-82
2022/07/27 05:01:06;;;;;;;;;;;;;;;13.08;77.81;100599.59;5055046;28;19913;-82
2022/07/27 05:03:31;;;;;;;;;;;;;;;13.03;77.61;100599.81;5054618;28;19988;-83
2022/07/27 05:05:56;;;;;;;;;;;;;;;13.40;76.50;100595.22;5054535;28;19920;-82
2022/07/27 05:08:22;;;;;;;;;;;;;;;13.27;76.28;100605.38;5054417;28;19913;-80
2022/07/27 05:10:47;;;;;;;;;;;;;;;13.12;76.89;100606.00;5054563;28;19924;-82
2022/07/27 05:13:13;;;;;;;;;;;;;;;13.07;77.27;100604.28;5055075;28;19916;-82
2022/07/27 05:15:38;;;;;;;;;;;;;;;13.14;76.92;100601.00;5054788;28;19917;-82
2022/07/27 05:18:04;;;;;;;;;;;;;;;13.09;77.09;100602.00;5053669;28;19971;-81
2022/07/27 05:20:29;;;;;;;;;;;;;;;13.33;76.56;100608.69;5053676;28;19913;-80
2022/07/27 05:22:54;;;;;;;;;;;;;;;13.19;76.62;100606.25;5054226;28;19913;-82
2022/07/27 05:25:20;;;;;;;;;;;;;;;13.22;76.29;100611.03;5054498;28;19923;-82
2022/07/27 05:27:46;;;;;;;;;;;;;;;13.19;76.74;100603.53;5054293;28;19913;-82
2022/07/27 05:30:11;;;;;;;;;;;;;;;13.29;76.14;100614.03;5054780;28;19913;-82
2022/07/27 05:32:37;;;;;;;;;;;;;;;13.43;75.50;100619.16;5054521;28;19955;-81
2022/07/27 05:35:03;;;;;;;;;;;;;;;13.42;75.09;100612.09;5054426;28;20078;-81
2022/07/27 05:37:28;;;;;;;;;;;;;;;13.34;75.81;100613.00;5054643;28;20075;-81
2022/07/27 05:39:53;;;;;;;;;;;;;;;13.35;75.61;100617.34;5053137;28;20360;-82
2022/07/27 05:42:19;;;;;;;;;;;;;;;13.46;75.27;100622.03;5054340;28;19913;-81
2022/07/27 05:44:44;;;;;;;;;;;;;;;13.48;75.21;100627.94;5054277;28;19912;-81
2022/07/27 05:47:09;;;;;;;;;;;;;;;13.65;74.70;100617.91;5053272;28;19923;-82
2022/07/27 05:49:34;;;;;;;;;;;;;;;13.72;74.42;100626.34;5054094;28;19923;-82
2022/07/27 05:52:00;;;;;;;;;;;;;;;13.74;73.47;100624.06;5053400;28;19966;-82
2022/07/27 05:54:25;;;;;;;;;;;;;;;13.91;73.25;100626.53;5053846;28;20425;-82
2022/07/27 05:56:51;;;;;;;;;;;;;;;14.06;72.94;100631.31;5056105;28;20015;-84
2022/07/27 05:59:17;;;;;;;;;;;;;;;14.37;71.46;100621.66;5054187;28;19913;-78
2022/07/27 06:01:42;;;;;;;;;;;;;;;14.41;71.63;100625.28;5053682;28;20372;-78
2022/07/27 06:04:07;;;;;;;;;;;;;;;14.42;71.64;100626.88;5054052;28;19924;-78
2022/07/27 06:09:17;;;;;;;;;;;;;;;14.44;70.71;100624.59;5053489;28;19919;-78
2022/07/27 06:11:42;;;;;;;;;;;;;;;14.44;70.21;100624.59;5053614;28;20376;-78
2022/07/27 06:14:08;;;;;;;;;;;;;;;14.50;70.35;100625.97;5053441;28;19943;-79
2022/07/27 06:16:33;;;;;;;;;;;;;;;14.95;69.14;100638.56;5052423;28;20267;-79
2022/07/27 06:18:59;;;;;;;;;;;;;;;14.91;69.21;100635.69;5053585;28;20249;-79
2022/07/27 06:21:26;;;;;;;;;;;;;;;14.78;69.68;100634.19;5053166;28;20019;-79
2022/07/27 06:23:53;;;;;;;;;;;;;;;15.04;69.89;100633.69;5053553;28;19964;-79
2022/07/27 06:26:18;;;;;;;;;;;;;;;15.09;68.39;100630.69;5053029;28;20349;-80
2022/07/27 06:28:43;;;;;;;;;;;;;;;15.05;67.97;100635.28;5053219;28;20011;-77
2022/07/27 06:31:08;;;;;;;;;;;;;;;15.17;68.19;100632.47;5053161;28;19913;-79
2022/07/27 06:33:34;;;;;;;;;;;;;;;15.33;66.93;100636.03;5053007;28;20015;-78
2022/07/27 06:35:59;;;;;;;;;;;;;;;16.11;65.35;100639.03;5052880;28;19951;-79
2022/07/27 06:38:25;;;;;;;;;;;;;;;17.17;61.58;100643.13;5053082;28;19982;-78
2022/07/27 06:40:53;;;;;;;;;;;;;;;18.03;58.24;100642.56;5052689;28;19935;-79
2022/07/27 06:43:24;;;;;;;;;;;;;;;18.45;56.23;100633.25;5053079;28;19948;-79
2022/07/27 06:45:49;;;;;;;;;;;;;;;18.94;55.30;100630.28;5052831;28;19966;-78
2022/07/27 06:48:15;;;;;;;;;;;;;;;18.92;54.49;100632.63;5052616;28;19943;-80
2022/07/27 06:50:40;;;;;;;;;;;;;;;19.16;55.60;100631.31;5052932;28;20431;-79
2022/07/27 06:53:06;;;;;;;;;;;;;;;19.68;53.29;100624.66;5052595;28;19916;-79
2022/07/27 06:55:31;;;;;;;;;;;;;;;19.92;52.11;100628.75;5052849;28;20003;-81
2022/07/27 06:57:56;;;;;;;;;;;;;;;19.75;52.02;100629.44;5052529;28;19921;-79
2022/07/27 07:00:22;;;;;;;;;;;;;;;19.79;51.16;100625.50;5052386;28;19966;-78
2022/07/27 07:03:05;;;;;;;;;;;;;;;20.22;51.02;100627.75;5050854;28;19943;-78
2022/07/27 07:05:31;;;;;;;;;;;;;;;20.23;51.42;100632.09;5052402;28;19968;-80
2022/07/27 07:07:57;;;;;;;;;;;;;;;20.62;49.24;100627.53;5052322;28;20018;-80
2022/07/27 07:10:23;;;;;;;;;;;;;;;20.05;50.54;100630.03;5052483;28;20004;-79
2022/07/27 07:12:48;;;;;;;;;;;;;;;19.69;51.97;100636.50;5052785;28;19932;-79
2022/07/27 07:15:15;;;;;;;;;;;;;;;19.59;53.12;100631.69;5052381;28;19917;-80
2022/07/27 07:17:41;;;;;;;;;;;;;;;20.07;51.58;100635.97;5052839;28;20004;-79
2022/07/27 07:20:06;;;;;;;;;;;;;;;19.26;51.94;100640.84;5052524;28;19913;-78
2022/07/27 07:22:34;;;;;;;;;;;;;;;18.48;55.84;100640.81;5052422;28;19920;-79
2022/07/27 07:25:00;;;;;;;;;;;;;;;18.13;55.72;100647.41;5051080;28;19935;-79
2022/07/27 07:27:26;;;;;;;;;;;;;;;18.60;55.19;100638.56;5052722;28;20360;-80
2022/07/27 07:29:51;;;;;;;;;;;;;;;17.87;56.09;100644.69;5051092;28;20328;-81
2022/07/27 07:32:21;;;;;;;;;;;;;;;17.09;58.64;100647.69;5052422;28;19917;-80
2022/07/27 07:34:46;;;;;;;;;;;;;;;17.38;57.37;100661.97;5052583;28;20407;-79
2022/07/27 07:37:11;;;;;;;;;;;;;;;17.28;58.64;100654.31;5052639;28;20053;-79
2022/07/27 07:39:37;;;;;;;;;;;;;;;17.01;58.00;100656.22;5051065;28;19963;-80
2022/07/27 07:42:02;;;;;;;;;;;;;;;17.26;58.10;100659.38;5052692;28;20011;-80
2022/07/27 07:44:27;;;;;;;;;;;;;;;17.06;58.34;100653.94;5050829;28;19927;-80
2022/07/27 07:46:53;;;;;;;;;;;;;;;17.16;56.14;100662.78;5052320;28;20006;-80
2022/07/27 07:49:18;;;;;;;;;;;;;;;17.28;56.31;100659.81;5050892;28;19916;-80
2022/07/27 07:51:43;;;;;;;;;;;;;;;17.25;55.94;100649.53;5052112;28;19913;-79
2022/07/27 07:54:09;;;;;;;;;;;;;;;17.33;55.77;100643.81;5051937;28;19913;-77
2022/07/27 07:56:34;;;;;;;;;;;;;;;17.22;57.08;100647.53;5052027;28;19917;-80
2022/07/27 07:59:03;;;;;;;;;;;;;;;17.75;56.29;100653.94;5052083;28;19912;-80
2022/07/27 08:01:28;;;;;;;;;;;;;;;17.53;54.38;100652.78;5050885;28;19956;-78
2022/07/27 08:03:54;;;;;;;;;;;;;;;17.82;55.07;100653.28;5052119;28;20003;-80
2022/07/27 08:06:19;;;;;;;;;;;;;;;17.90;52.68;100657.72;5051316;28;19916;-82
2022/07/27 08:08:44;;;;;;;;;;;;;;;17.88;52.83;100660.03;5052196;28;20019;-80
2022/07/27 08:11:10;;;;;;;;;;;;;;;17.77;52.08;100664.59;5052045;28;19913;-83
2022/07/27 08:13:35;;;;;;;;;;;;;;;17.85;52.74;100652.53;5052053;28;19927;-79
2022/07/27 08:16:00;;;;;;;;;;;;;;;17.74;52.91;100653.16;5055344;28;19924;-80
2022/07/27 08:18:26;;;;;;;;;;;;;;;17.99;52.22;100656.28;5055929;28;19923;-81
2022/07/27 08:20:52;;;;;;;;;;;;;;;17.99;51.09;100659.03;5056558;28;19913;-81
2022/07/27 08:23:18;;;;;;;;;;;;;;;18.24;49.36;100659.38;5056064;28;19938;-82
2022/07/27 08:25:44;;;;;;;;;;;;;;;17.84;48.39;100657.25;5056080;28;19966;-83
2022/07/27 08:28:09;;;;;;;;;;;;;;;17.89;48.21;100665.19;5055600;28;20019;-82
2022/07/27 08:30:34;;;;;;;;;;;;;;;17.93;48.68;100660.50;5055489;28;19912;-80
2022/07/27 08:33:00;;;;;;;;;;;;;;;17.80;50.90;100663.84;5055394;28;19917;-80
2022/07/27 08:35:26;;;;;;;;;;;;;;;17.90;49.73;100658.50;5055744;28;19919;-82
2022/07/27 08:37:52;;;;;;;;;;;;;;;17.89;48.52;100659.69;5055379;28;19951;-79
2022/07/27 08:40:18;;;;;;;;;;;;;;;18.02;47.21;100663.03;5055662;28;19913;-82
2022/07/27 08:42:43;;;;;;;;;;;;;;;17.89;49.63;100664.38;5054374;28;19913;-81
2022/07/27 08:45:09;;;;;;;;;;;;;;;17.86;47.47;100665.13;5055665;28;19944;-80
2022/07/27 08:47:35;;;;;;;;;;;;;;;17.72;49.04;100657.44;5055855;28;19913;-81
2022/07/27 08:50:01;;;;;;;;;;;;;;;17.41;49.93;100655.72;5056009;28;19913;-82
2022/07/27 08:52:31;;;;;;;;;;;;;;;17.59;50.54;100662.31;5056059;28;19958;-83
2022/07/27 08:54:57;;;;;;;;;;;;;;;17.57;50.89;100659.13;5056365;28;19938;-81
2022/07/27 08:57:22;;;;;;;;;;;;;;;17.60;50.73;100663.13;5055277;28;19920;-82
2022/07/27 08:59:47;;;;;;;;;;;;;;;17.37;51.62;100660.38;5055621;28;19926;-82
2022/07/27 09:02:13;;;;;;;;;;;;;;;17.38;51.73;100670.22;5053857;28;19970;-79
2022/07/27 09:04:39;;;;;;;;;;;;;;;17.42;52.90;100668.31;5055225;28;19928;-81
2022/07/27 09:07:04;;;;;;;;;;;;;;;17.73;51.92;100668.09;5055095;28;20410;-81
2022/07/27 09:09:41;;;;;;;;;;;;;;;17.77;50.25;100670.88;5055045;28;20011;-82
2022/07/27 09:12:08;;;;;;;;;;;;;;;17.79;49.92;100665.00;5055059;28;19999;-83
2022/07/27 09:14:34;;;;;;;;;;;;;;;17.99;50.75;100659.03;5055005;28;19913;-81
2022/07/27 09:17:19;;;;;;;;;;;;;;;18.03;50.52;100662.66;5054977;28;19939;-82
2022/07/27 09:19:53;;;;;;;;;;;;;;;17.86;51.17;100668.69;5054130;28;19995;-81
2022/07/27 09:22:37;;;;;;;;;;;;;;;17.66;51.88;100662.44;5054968;28;20263;-82
2022/07/27 09:25:02;;;;;;;;;;;;;;;17.48;53.40;100664.13;5054482;28;20004;-81
2022/07/27 09:27:31;;;;;;;;;;;;;;;17.35;53.79;100668.22;5052028;28;19916;-82
2022/07/27 09:30:01;;;;;;;;;;;;;;;17.24;54.25;100668.03;5053254;28;19913;-81
2022/07/27 09:32:26;;;;;;;;;;;;;;;17.23;55.38;100671.13;5054361;28;20372;-81
2022/07/27 09:34:51;;;;;;;;;;;;;;;17.20;56.12;100671.88;5053357;28;19913;-81
2022/07/27 09:37:24;;;;;;;;;;;;;;;17.28;55.76;100676.34;5054428;28;20003;-79
2022/07/27 09:39:52;;;;;;;;;;;;;;;17.63;55.84;100671.44;5054391;28;19913;-81
2022/07/27 09:42:19;;;;;;;;;;;;;;;17.89;53.87;100676.19;5053314;28;20291;-80
2022/07/27 09:44:45;;;;;;;;;;;;;;;17.80;53.94;100678.41;5053096;28;19924;-82
2022/07/27 09:47:19;;;;;;;;;;;;;;;17.75;53.42;100664.97;5054601;28;19913;-81
2022/07/27 09:49:45;;;;;;;;;;;;;;;17.96;53.56;100676.28;5054224;28;19912;-82
2022/07/27 09:52:20;;;;;;;;;;;;;;;17.94;53.53;100669.56;5054132;28;19935;-80
2022/07/27 09:54:46;;;;;;;;;;;;;;;17.90;53.64;100671.50;5054169;28;20372;-81
2022/07/27 09:57:11;;;;;;;;;;;;;;;18.10;53.59;100670.22;5054392;28;19919;-78
2022/07/27 09:59:36;;;;;;;;;;;;;;;18.39;50.79;100665.09;5054393;28;19916;-81
2022/07/27 10:02:01;;;;;;;;;;;;;;;18.52;50.21;100658.16;5053837;28;19956;-80
2022/07/27 10:04:27;;;;;;;;;;;;;;;18.46;49.94;100654.94;5052590;28;19917;-79
2022/07/27 10:06:52;;;;;;;;;;;;;;;18.40;49.54;100666.69;5054250;28;20007;-81
2022/07/27 10:09:18;;;;;;;;;;;;;;;18.53;48.97;100662.53;5053746;28;20023;-79
2022/07/27 10:11:45;;;;;;;;;;;;;;;18.61;49.71;100651.19;5052593;28;19913;-81
2022/07/27 10:14:10;;;;;;;;;;;;;;;19.11;47.70;100653.72;5053780;28;19919;-81
2022/07/27 10:16:36;;;;;;;;;;;;;;;19.32;46.55;100651.19;5053870;28;19932;-80
2022/07/27 10:19:04;;;;;;;;;;;;;;;19.27;47.33;100645.19;5053534;28;19952;-78
2022/07/27 10:21:33;;;;;;;;;;;;;;;18.97;47.75;100654.38;5053601;28;19978;-80
2022/07/27 10:24:01;;;;;;;;;;;;;;;18.91;47.73;100655.88;5053805;28;19959;-80
2022/07/27 10:26:28;;;;;;;;;;;;;;;18.83;48.02;100651.47;5053784;28;19913;-78
2022/07/27 10:28:55;;;;;;;;;;;;;;;19.07;48.13;100661.19;5053470;28;19916;-79
2022/07/27 10:31:22;;;;;;;;;;;;;;;18.93;47.43;100661.81;5053564;28;20007;-81
2022/07/27 10:33:48;;;;;;;;;;;;;;;18.94;48.22;100664.19;5051980;28;19962;-79
2022/07/27 10:36:23;;;;;;;;;;;;;;;18.91;45.53;100659.44;5052084;28;20302;-80
2022/07/27 10:38:55;;;;;;;;;;;;;;;18.97;46.72;100668.16;5052822;28;19962;-80
2022/07/27 10:41:21;;;;;;;;;;;;;;;18.83;46.62;100666.06;5053126;28;19952;-81
2022/07/27 10:43:46;;;;;;;;;;;;;;;18.83;46.03;100663.31;5053380;28;20351;-81
2022/07/27 10:46:18;;;;;;;;;;;;;;;18.81;46.12;100673.09;5052061;28;19920;-80
2022/07/27 10:48:43;;;;;;;;;;;;;;;19.01;45.05;100669.03;5052936;28;19956;-80
2022/07/27 10:51:09;;;;;;;;;;;;;;;19.00;45.66;100666.63;5053189;28;20041;-80
2022/07/27 10:53:38;;;;;;;;;;;;;;;18.82;46.10;100670.00;5053243;28;19983;-80
2022/07/27 10:56:04;;;;;;;;;;;;;;;18.50;46.22;100674.31;5053166;28;19913;-79
2022/07/27 10:58:29;;;;;;;;;;;;;;;18.30;46.43;100657.88;5052922;28;19936;-80
2022/07/27 11:00:54;;;;;;;;;;;;;;;18.45;46.24;100664.38;5053227;28;19912;-80
2022/07/27 11:03:24;;;;;;;;;;;;;;;18.66;45.62;100669.41;5053035;28;19988;-80
2022/07/27 11:06:01;;;;;;;;;;;;;;;18.94;45.92;100668.91;5052917;28;20324;-81
2022/07/27 11:08:28;;;;;;;;;;;;;;;18.84;45.11;100667.66;5051741;28;19920;-80
2022/07/27 11:10:55;;;;;;;;;;;;;;;19.22;44.99;100662.91;5052647;28;19935;-81
2022/07/27 11:13:21;;;;;;;;;;;;;;;19.62;43.42;100661.31;5053075;28;19912;-82
2022/07/27 11:16:06;;;;;;;;;;;;;;;19.67;43.39;100658.22;5053346;28;19960;-82
2022/07/27 11:18:32;;;;;;;;;;;;;;;20.06;42.72;100655.69;5051614;28;20364;-81
2022/07/27 11:21:16;;;;;;;;;;;;;;;19.91;43.39;100652.06;5052817;28;19916;-82
2022/07/27 11:23:44;;;;;;;;;;;;;;;19.49;41.92;100652.50;5052594;28;20360;-79
2022/07/27 11:26:10;;;;;;;;;;;;;;;19.15;42.31;100655.38;5052324;28;20027;-81
2022/07/27 11:28:36;;;;;;;;;;;;;;;19.39;43.42;100650.44;5052476;28;20435;-81
2022/07/27 11:31:02;;;;;;;;;;;;;;;19.24;43.31;100646.75;5052880;28;19939;-81
2022/07/27 11:33:29;;;;;;;;;;;;;;;19.50;42.75;100645.81;5052913;28;19920;-79
2022/07/27 11:35:56;;;;;;;;;;;;;;;19.63;41.96;100646.31;5052453;28;20240;-79
2022/07/27 11:38:21;;;;;;;;;;;;;;;19.45;42.56;100646.94;5051513;28;20004;-79
2022/07/27 11:40:47;;;;;;;;;;;;;;;19.75;47.05;100643.25;5053184;28;19956;-82
2022/07/27 11:43:29;;;;;;;;;;;;;;;19.85;43.67;100639.78;5052973;28;19920;-81
2022/07/27 11:45:54;;;;;;;;;;;;;;;19.70;42.60;100638.09;5052590;28;20381;-80
2022/07/27 11:48:20;;;;;;;;;;;;;;;19.76;42.01;100631.03;5051384;28;19917;-81
2022/07/27 11:50:57;;;;;;;;;;;;;;;19.44;42.44;100639.03;5055294;28;20271;-80
2022/07/27 11:53:24;;;;;;;;;;;;;;;19.22;42.63;100633.34;5056846;28;20024;-80
2022/07/27 11:55:49;;;;;;;;;;;;;;;19.50;40.85;100620.94;5056871;28;19970;-81
2022/07/27 11:58:17;;;;;;;;;;;;;;;19.26;40.03;100627.84;5056446;28;20003;-80
2022/07/27 12:00:43;;;;;;;;;;;;;;;19.55;40.51;100622.59;5056672;28;19912;-81
2022/07/27 12:03:18;;;;;;;;;;;;;;;19.44;39.79;100634.31;5056569;28;20382;-79
2022/07/27 12:05:47;;;;;;;;;;;;;;;19.57;40.29;100628.53;5056352;28;19916;-79
2022/07/27 12:08:13;;;;;;;;;;;;;;;19.79;39.18;100627.47;5056046;28;19920;-82
2022/07/27 12:10:38;;;;;;;;;;;;;;;19.47;40.40;100619.72;5056592;28;19920;-81
2022/07/27 12:13:03;;;;;;;;;;;;;;;19.60;41.65;100617.50;5056353;28;19936;-81
2022/07/27 12:15:28;;;;;;;;;;;;;;;19.97;39.72;100622.06;5056946;28;19917;-81
2022/07/27 12:17:56;;;;;;;;;;;;;;;20.00;38.58;100613.81;5056413;28;20255;-80
2022/07/27 12:20:23;;;;;;;;;;;;;;;20.10;39.07;100623.34;5054746;28;20007;-80
2022/07/27 12:22:51;;;;;;;;;;;;;;;19.33;40.10;100619.63;5056149;28;19974;-82
2022/07/27 12:25:16;;;;;;;;;;;;;;;19.21;41.27;100614.41;5055104;28;20273;-83
2022/07/27 12:27:55;;;;;;;;;;;;;;;19.17;40.86;100613.56;5056087;28;19913;-80
2022/07/27 12:30:41;;;;;;;;;;;;;;;19.11;40.55;100610.34;5054689;28;19912;-79
2022/07/27 12:33:26;;;;;;;;;;;;;;;19.06;41.41;100613.47;5055555;28;19917;-80
2022/07/27 12:35:52;;;;;;;;;;;;;;;19.09;42.48;100607.19;5051456;28;19958;-81
2022/07/27 12:38:17;;;;;;;;;;;;;;;19.05;40.68;100609.13;5055828;28;20287;-81